sensor_id;sensor_type;location;lat;lon;timestamp;temperature;humidity
32749;DHT22;19119;52.474;13.710;2022-09-20T00:01:12;8.90;99.90
32749;DHT22;19119;52.474;13.710;2022-09-20T00:03:44;8.80;99.90
32749;DHT22;19119;52.474;13.710;2022-09-20T00:06:13;8.80;99.90
32749;DHT22;19119;52.474;13.710;2022-09-20T00:08:39;8.80;99.90
32749;DHT22;19119;52.474;13.710;2022-09-20T00:11:20;8.80;99.90
32749;DHT22;19119;52.474;13.710;2022-09-20T00:13:47;8.70;99.90
32749;DHT22;19119;52.474;13.710;2022-09-20T00:16:19;8.70;99.90
32749;DHT22;19119;52.474;13.710;2022-09-20T00:18:49;8.70;99.90
32749;DHT22;19119;52.474;13.710;2022-09-20T00:21:21;8.70;99.90
32749;DHT22;19119;52.474;13.710;2022-09-20T00:23:47;8.70;99.90
32749;DHT22;19119;52.474;13.710;2022-09-20T00:26:13;8.60;99.90
32749;DHT22;19119;52.474;13.710;2022-09-20T00:28:39;8.70;99.90
32749;DHT22;19119;52.474;13.710;2022-09-20T00:31:05;8.60;99.90
32749;DHT22;19119;52.474;13.710;2022-09-20T00:33:32;8.60;99.90
32749;DHT22;19119;52.474;13.710;2022-09-20T00:36:25;8.60;99.90
32749;DHT22;19119;52.474;13.710;2022-09-20T00:38:59;8.60;99.90
32749;DHT22;19119;52.474;13.710;2022-09-20T00:41:25;8.60;99.90
32749;DHT22;19119;52.474;13.710;2022-09-20T00:43:51;8.50;99.90
32749;DHT22;19119;52.474;13.710;2022-09-20T00:46:42;8.50;99.90
32749;DHT22;19119;52.474;13.710;2022-09-20T00:49:28;8.50;99.90
32749;DHT22;19119;52.474;13.710;2022-09-20T00:51:57;8.40;99.90
32749;DHT22;19119;52.474;13.710;2022-09-20T00:54:24;8.40;99.90
32749;DHT22;19119;52.474;13.710;2022-09-20T00:56:51;8.30;99.90
32749;DHT22;19119;52.474;13.710;2022-09-20T00:59:21;8.30;99.90
32749;DHT22;19119;52.474;13.710;2022-09-20T01:01:57;8.30;99.90
32749;DHT22;19119;52.474;13.710;2022-09-20T01:04:25;8.30;99.90
32749;DHT22;19119;52.474;13.710;2022-09-20T01:06:53;8.30;99.90
32749;DHT22;19119;52.474;13.710;2022-09-20T01:09:21;8.20;99.90
32749;DHT22;19119;52.474;13.710;2022-09-20T01:11:48;8.20;99.90
32749;DHT22;19119;52.474;13.710;2022-09-20T01:14:15;8.10;99.90
32749;DHT22;19119;52.474;13.710;2022-09-20T01:16:43;8.10;99.90
32749;DHT22;19119;52.474;13.710;2022-09-20T01:19:27;8.10;99.90
32749;DHT22;19119;52.474;13.710;2022-09-20T01:21:56;8.10;99.90
32749;DHT22;19119;52.474;13.710;2022-09-20T01:24:37;8.00;99.90
32749;DHT22;19119;52.474;13.710;2022-09-20T01:27:12;8.00;99.90
32749;DHT22;19119;52.474;13.710;2022-09-20T01:30:00;8.00;99.90
32749;DHT22;19119;52.474;13.710;2022-09-20T01:32:43;8.00;99.90
32749;DHT22;19119;52.474;13.710;2022-09-20T01:35:10;7.90;99.90
32749;DHT22;19119;52.474;13.710;2022-09-20T01:38:04;7.90;99.90
32749;DHT22;19119;52.474;13.710;2022-09-20T01:40:55;7.80;99.90
32749;DHT22;19119;52.474;13.710;2022-09-20T01:46:20;7.80;99.90
32749;DHT22;19119;52.474;13.710;2022-09-20T01:48:50;7.80;99.90
32749;DHT22;19119;52.474;13.710;2022-09-20T01:54:58;7.70;99.90
32749;DHT22;19119;52.474;13.710;2022-09-20T02:00:22;7.60;99.90
32749;DHT22;19119;52.474;13.710;2022-09-20T02:11:49;7.50;99.90
32749;DHT22;19119;52.474;13.710;2022-09-20T02:14:32;7.40;99.90
32749;DHT22;19119;52.474;13.710;2022-09-20T02:17:13;7.40;99.90
32749;DHT22;19119;52.474;13.710;2022-09-20T02:20:06;7.20;99.90
32749;DHT22;19119;52.474;13.710;2022-09-20T02:25:33;7.20;99.90
32749;DHT22;19119;52.474;13.710;2022-09-20T02:28:30;7.20;99.90
32749;DHT22;19119;52.474;13.710;2022-09-20T02:31:20;7.20;99.90
32749;DHT22;19119;52.474;13.710;2022-09-20T02:39:55;7.30;99.90
32749;DHT22;19119;52.474;13.710;2022-09-20T02:45:15;7.20;99.90
32749;DHT22;19119;52.474;13.710;2022-09-20T02:47:43;7.50;99.90
32749;DHT22;19119;52.474;13.710;2022-09-20T02:56:04;7.30;99.90
32749;DHT22;19119;52.474;13.710;2022-09-20T03:07:04;7.30;99.90
32749;DHT22;19119;52.474;13.710;2022-09-20T03:09:32;7.30;99.90
32749;DHT22;19119;52.474;13.710;2022-09-20T03:15:31;7.20;99.90
32749;DHT22;19119;52.474;13.710;2022-09-20T03:18:10;7.20;99.90
32749;DHT22;19119;52.474;13.710;2022-09-20T03:26:31;7.10;99.90
32749;DHT22;19119;52.474;13.710;2022-09-20T03:29:24;7.10;99.90
32749;DHT22;19119;52.474;13.710;2022-09-20T03:32:38;7.10;99.90
32749;DHT22;19119;52.474;13.710;2022-09-20T03:35:21;7.00;99.90
32749;DHT22;19119;52.474;13.710;2022-09-20T03:38:14;7.00;99.90
32749;DHT22;19119;52.474;13.710;2022-09-20T03:41:27;7.00;99.90
32749;DHT22;19119;52.474;13.710;2022-09-20T03:46:28;6.90;99.90
32749;DHT22;19119;52.474;13.710;2022-09-20T03:52:05;6.80;99.90
32749;DHT22;19119;52.474;13.710;2022-09-20T04:00:21;6.70;99.90
32749;DHT22;19119;52.474;13.710;2022-09-20T04:11:09;6.60;99.90
32749;DHT22;19119;52.474;13.710;2022-09-20T04:21:56;6.60;99.90
32749;DHT22;19119;52.474;13.710;2022-09-20T04:24:34;6.60;99.90
32749;DHT22;19119;52.474;13.710;2022-09-20T04:27:14;6.60;99.90
32749;DHT22;19119;52.474;13.710;2022-09-20T04:38:17;6.70;99.90
32749;DHT22;19119;52.474;13.710;2022-09-20T05:03:57;7.00;99.90
32749;DHT22;19119;52.474;13.710;2022-09-20T05:12:18;7.10;99.90
32749;DHT22;19119;52.474;13.710;2022-09-20T05:20:39;7.20;99.90
32749;DHT22;19119;52.474;13.710;2022-09-20T05:28:52;7.30;99.90
32749;DHT22;19119;52.474;13.710;2022-09-20T05:34:08;7.40;99.90
32749;DHT22;19119;52.474;13.710;2022-09-20T05:36:52;7.40;99.90
32749;DHT22;19119;52.474;13.710;2022-09-20T05:42:41;7.50;99.90
32749;DHT22;19119;52.474;13.710;2022-09-20T06:02:19;8.30;99.90
32749;DHT22;19119;52.474;13.710;2022-09-20T06:05:21;8.50;99.90
32749;DHT22;19119;52.474;13.710;2022-09-20T06:12:59;8.90;99.90
32749;DHT22;19119;52.474;13.710;2022-09-20T06:23:47;10.00;99.90
32749;DHT22;19119;52.474;13.710;2022-09-20T06:26:19;10.20;99.90
32749;DHT22;19119;52.474;13.710;2022-09-20T06:28:53;10.50;99.90
32749;DHT22;19119;52.474;13.710;2022-09-20T06:31:20;10.80;99.90
32749;DHT22;19119;52.474;13.710;2022-09-20T06:33:53;11.00;99.90
32749;DHT22;19119;52.474;13.710;2022-09-20T06:36:34;11.30;99.90
32749;DHT22;19119;52.474;13.710;2022-09-20T06:42:14;11.90;99.90
32749;DHT22;19119;52.474;13.710;2022-09-20T06:44:40;11.90;99.90
32749;DHT22;19119;52.474;13.710;2022-09-20T06:47:12;12.10;99.90
32749;DHT22;19119;52.474;13.710;2022-09-20T06:49:38;12.30;99.90
32749;DHT22;19119;52.474;13.710;2022-09-20T06:52:06;12.40;99.90
32749;DHT22;19119;52.474;13.710;2022-09-20T06:54:33;12.60;99.90
32749;DHT22;19119;52.474;13.710;2022-09-20T06:57:02;12.70;99.90
32749;DHT22;19119;52.474;13.710;2022-09-20T06:59:29;12.80;99.90
32749;DHT22;19119;52.474;13.710;2022-09-20T07:01:54;13.00;99.90
32749;DHT22;19119;52.474;13.710;2022-09-20T07:04:20;13.10;99.90
32749;DHT22;19119;52.474;13.710;2022-09-20T07:06:51;13.30;99.90
32749;DHT22;19119;52.474;13.710;2022-09-20T07:09:17;13.30;99.90
32749;DHT22;19119;52.474;13.710;2022-09-20T07:11:43;13.10;99.90
32749;DHT22;19119;52.474;13.710;2022-09-20T07:14:09;13.20;99.90
32749;DHT22;19119;52.474;13.710;2022-09-20T07:16:35;13.10;99.90
32749;DHT22;19119;52.474;13.710;2022-09-20T07:19:02;13.30;99.90
32749;DHT22;19119;52.474;13.710;2022-09-20T07:21:27;13.40;99.90
32749;DHT22;19119;52.474;13.710;2022-09-20T07:23:53;13.40;99.90
32749;DHT22;19119;52.474;13.710;2022-09-20T07:26:24;13.70;99.90
32749;DHT22;19119;52.474;13.710;2022-09-20T07:28:50;13.80;99.90
32749;DHT22;19119;52.474;13.710;2022-09-20T07:31:18;13.80;99.90
32749;DHT22;19119;52.474;13.710;2022-09-20T07:33:44;13.80;99.90
32749;DHT22;19119;52.474;13.710;2022-09-20T07:36:10;13.90;99.90
32749;DHT22;19119;52.474;13.710;2022-09-20T07:38:39;14.10;99.90
32749;DHT22;19119;52.474;13.710;2022-09-20T07:41:06;13.90;99.90
32749;DHT22;19119;52.474;13.710;2022-09-20T07:43:32;14.30;99.90
32749;DHT22;19119;52.474;13.710;2022-09-20T07:45:58;14.30;99.90
32749;DHT22;19119;52.474;13.710;2022-09-20T07:48:26;14.50;99.90
32749;DHT22;19119;52.474;13.710;2022-09-20T07:51:00;14.90;99.90
32749;DHT22;19119;52.474;13.710;2022-09-20T07:53:26;14.70;99.90
32749;DHT22;19119;52.474;13.710;2022-09-20T07:56:00;14.90;99.90
32749;DHT22;19119;52.474;13.710;2022-09-20T07:58:28;15.20;99.90
32749;DHT22;19119;52.474;13.710;2022-09-20T08:00:55;15.30;99.90
32749;DHT22;19119;52.474;13.710;2022-09-20T08:03:21;15.30;99.90
32749;DHT22;19119;52.474;13.710;2022-09-20T08:05:46;15.60;99.90
32749;DHT22;19119;52.474;13.710;2022-09-20T08:08:13;15.70;99.90
32749;DHT22;19119;52.474;13.710;2022-09-20T08:10:39;15.50;99.90
32749;DHT22;19119;52.474;13.710;2022-09-20T08:13:06;15.50;99.90
32749;DHT22;19119;52.474;13.710;2022-09-20T08:15:32;15.60;99.90
32749;DHT22;19119;52.474;13.710;2022-09-20T08:17:57;15.40;99.90
32749;DHT22;19119;52.474;13.710;2022-09-20T08:20:23;15.80;99.90
32749;DHT22;19119;52.474;13.710;2022-09-20T08:22:48;16.10;99.90
32749;DHT22;19119;52.474;13.710;2022-09-20T08:25:14;16.10;99.90
32749;DHT22;19119;52.474;13.710;2022-09-20T08:27:42;16.00;99.90
32749;DHT22;19119;52.474;13.710;2022-09-20T08:30:08;16.10;99.90
32749;DHT22;19119;52.474;13.710;2022-09-20T08:32:34;16.40;99.90
32749;DHT22;19119;52.474;13.710;2022-09-20T08:35:02;16.60;99.90
32749;DHT22;19119;52.474;13.710;2022-09-20T08:37:28;16.30;99.90
32749;DHT22;19119;52.474;13.710;2022-09-20T08:39:53;16.30;99.90
32749;DHT22;19119;52.474;13.710;2022-09-20T08:42:33;16.40;99.90
32749;DHT22;19119;52.474;13.710;2022-09-20T08:45:05;16.80;99.90
32749;DHT22;19119;52.474;13.710;2022-09-20T08:47:37;17.10;99.90
32749;DHT22;19119;52.474;13.710;2022-09-20T08:50:10;17.00;99.90
32749;DHT22;19119;52.474;13.710;2022-09-20T08:52:39;16.50;99.90
32749;DHT22;19119;52.474;13.710;2022-09-20T08:55:25;16.30;99.90
32749;DHT22;19119;52.474;13.710;2022-09-20T08:57:58;16.60;99.90
32749;DHT22;19119;52.474;13.710;2022-09-20T09:00:27;16.70;99.90
32749;DHT22;19119;52.474;13.710;2022-09-20T09:02:56;16.30;99.90
32749;DHT22;19119;52.474;13.710;2022-09-20T09:05:30;16.40;99.90
32749;DHT22;19119;52.474;13.710;2022-09-20T09:07:57;16.50;99.90
32749;DHT22;19119;52.474;13.710;2022-09-20T09:10:35;16.90;99.90
32749;DHT22;19119;52.474;13.710;2022-09-20T09:13:03;16.70;99.90
32749;DHT22;19119;52.474;13.710;2022-09-20T09:15:32;17.20;99.90
32749;DHT22;19119;52.474;13.710;2022-09-20T09:17:58;17.70;99.90
32749;DHT22;19119;52.474;13.710;2022-09-20T09:20:24;18.00;99.90
32749;DHT22;19119;52.474;13.710;2022-09-20T09:23:05;17.50;99.90
32749;DHT22;19119;52.474;13.710;2022-09-20T09:25:37;17.60;99.90
32749;DHT22;19119;52.474;13.710;2022-09-20T09:28:12;17.40;99.90
32749;DHT22;19119;52.474;13.710;2022-09-20T09:30:43;17.10;99.90
32749;DHT22;19119;52.474;13.710;2022-09-20T09:33:29;16.80;99.90
32749;DHT22;19119;52.474;13.710;2022-09-20T09:36:16;16.80;99.90
32749;DHT22;19119;52.474;13.710;2022-09-20T09:38:45;16.90;99.90
32749;DHT22;19119;52.474;13.710;2022-09-20T09:41:22;17.60;99.90
32749;DHT22;19119;52.474;13.710;2022-09-20T09:43:59;17.50;99.90
32749;DHT22;19119;52.474;13.710;2022-09-20T09:46:30;18.00;99.90
32749;DHT22;19119;52.474;13.710;2022-09-20T09:49:15;18.50;99.90
32749;DHT22;19119;52.474;13.710;2022-09-20T09:51:59;18.90;99.90
32749;DHT22;19119;52.474;13.710;2022-09-20T09:54:31;18.20;99.90
32749;DHT22;19119;52.474;13.710;2022-09-20T10:05:27;18.40;99.90
32749;DHT22;19119;52.474;13.710;2022-09-20T10:11:13;18.00;99.90
32749;DHT22;19119;52.474;13.710;2022-09-20T10:16:34;19.20;99.90
32749;DHT22;19119;52.474;13.710;2022-09-20T10:22:35;18.20;99.90
32749;DHT22;19119;52.474;13.710;2022-09-20T10:25:43;18.40;99.90
32749;DHT22;19119;52.474;13.710;2022-09-20T10:28:28;18.60;99.90
32749;DHT22;19119;52.474;13.710;2022-09-20T10:31:11;19.20;99.90
32749;DHT22;19119;52.474;13.710;2022-09-20T10:36:58;19.60;99.90
32749;DHT22;19119;52.474;13.710;2022-09-20T10:39:30;19.20;99.90
32749;DHT22;19119;52.474;13.710;2022-09-20T10:47:49;18.90;99.90
32749;DHT22;19119;52.474;13.710;2022-09-20T10:50:23;18.40;99.90
32749;DHT22;19119;52.474;13.710;2022-09-20T10:58:55;13.90;99.90
32749;DHT22;19119;52.474;13.710;2022-09-20T11:01:40;13.60;99.90
32749;DHT22;19119;52.474;13.710;2022-09-20T11:09:46;13.70;99.90
32749;DHT22;19119;52.474;13.710;2022-09-20T11:12:37;13.80;99.90
32749;DHT22;19119;52.474;13.710;2022-09-20T11:15:23;13.70;99.90
32749;DHT22;19119;52.474;13.710;2022-09-20T11:18:03;13.60;99.90
32749;DHT22;19119;52.474;13.710;2022-09-20T11:20:42;13.50;99.90
32749;DHT22;19119;52.474;13.710;2022-09-20T11:23:19;13.80;99.90
32749;DHT22;19119;52.474;13.710;2022-09-20T11:25:49;13.90;99.90
32749;DHT22;19119;52.474;13.710;2022-09-20T11:33:56;14.60;99.90
32749;DHT22;19119;52.474;13.710;2022-09-20T11:36:38;14.70;99.90
32749;DHT22;19119;52.474;13.710;2022-09-20T11:39:12;14.40;99.90
32749;DHT22;19119;52.474;13.710;2022-09-20T11:41:39;14.40;99.90
32749;DHT22;19119;52.474;13.710;2022-09-20T11:44:10;14.40;99.90
32749;DHT22;19119;52.474;13.710;2022-09-20T11:46:57;14.40;99.90
32749;DHT22;19119;52.474;13.710;2022-09-20T11:49:29;14.10;99.90
32749;DHT22;19119;52.474;13.710;2022-09-20T11:55:06;13.90;99.90
32749;DHT22;19119;52.474;13.710;2022-09-20T11:57:35;14.00;99.90
32749;DHT22;19119;52.474;13.710;2022-09-20T12:00:03;13.90;99.90
32749;DHT22;19119;52.474;13.710;2022-09-20T12:05:30;13.70;99.90
32749;DHT22;19119;52.474;13.710;2022-09-20T12:07:59;13.60;99.90
32749;DHT22;19119;52.474;13.710;2022-09-20T12:10:38;13.60;99.90
32749;DHT22;19119;52.474;13.710;2022-09-20T12:13:21;13.60;99.90
32749;DHT22;19119;52.474;13.710;2022-09-20T12:15:58;13.50;99.90
32749;DHT22;19119;52.474;13.710;2022-09-20T12:20:59;14.00;99.90
32749;DHT22;19119;52.474;13.710;2022-09-20T12:28:39;16.10;99.90
32749;DHT22;19119;52.474;13.710;2022-09-20T12:36:38;17.50;99.90
32749;DHT22;19119;52.474;13.710;2022-09-20T12:41:54;16.80;99.90
32749;DHT22;19119;52.474;13.710;2022-09-20T12:47:19;16.80;99.90
32749;DHT22;19119;52.474;13.710;2022-09-20T12:55:40;18.00;99.90
32749;DHT22;19119;52.474;13.710;2022-09-20T13:00:46;18.60;99.90
32749;DHT22;19119;52.474;13.710;2022-09-20T13:05:43;18.60;99.90
32749;DHT22;19119;52.474;13.710;2022-09-20T13:08:16;18.90;99.90
32749;DHT22;19119;52.474;13.710;2022-09-20T13:10:47;19.30;99.90
32749;DHT22;19119;52.474;13.710;2022-09-20T13:16:41;19.60;99.90
32749;DHT22;19119;52.474;13.710;2022-09-20T13:21:36;19.80;99.90
32749;DHT22;19119;52.474;13.710;2022-09-20T13:24:03;19.90;99.90
32749;DHT22;19119;52.474;13.710;2022-09-20T13:26:34;19.80;99.90
32749;DHT22;19119;52.474;13.710;2022-09-20T13:29:06;19.70;99.90
32749;DHT22;19119;52.474;13.710;2022-09-20T13:31:32;19.10;99.90
32749;DHT22;19119;52.474;13.710;2022-09-20T13:34:22;18.70;99.90
32749;DHT22;19119;52.474;13.710;2022-09-20T13:36:52;18.10;99.90
32749;DHT22;19119;52.474;13.710;2022-09-20T13:39:31;17.70;99.90
32749;DHT22;19119;52.474;13.710;2022-09-20T13:42:01;17.30;99.90
32749;DHT22;19119;52.474;13.710;2022-09-20T13:44:30;16.70;99.90
32749;DHT22;19119;52.474;13.710;2022-09-20T13:46:58;16.40;99.90
32749;DHT22;19119;52.474;13.710;2022-09-20T13:49:24;16.20;99.90
32749;DHT22;19119;52.474;13.710;2022-09-20T13:51:50;16.00;99.90
32749;DHT22;19119;52.474;13.710;2022-09-20T13:54:30;15.60;99.90
32749;DHT22;19119;52.474;13.710;2022-09-20T13:57:01;15.10;99.90
32749;DHT22;19119;52.474;13.710;2022-09-20T13:59:34;14.90;99.90
32749;DHT22;19119;52.474;13.710;2022-09-20T14:02:00;14.70;99.90
32749;DHT22;19119;52.474;13.710;2022-09-20T14:04:28;14.40;99.90
32749;DHT22;19119;52.474;13.710;2022-09-20T14:06:57;14.10;99.90
32749;DHT22;19119;52.474;13.710;2022-09-20T14:09:34;13.70;99.90
32749;DHT22;19119;52.474;13.710;2022-09-20T14:12:04;13.20;99.90
32749;DHT22;19119;52.474;13.710;2022-09-20T14:14:31;13.20;99.90
32749;DHT22;19119;52.474;13.710;2022-09-20T14:17:00;13.30;99.90
32749;DHT22;19119;52.474;13.710;2022-09-20T14:19:31;13.40;99.90
32749;DHT22;19119;52.474;13.710;2022-09-20T14:22:04;13.50;99.90
32749;DHT22;19119;52.474;13.710;2022-09-20T14:24:35;13.50;99.90
32749;DHT22;19119;52.474;13.710;2022-09-20T14:27:20;13.40;99.90
32749;DHT22;19119;52.474;13.710;2022-09-20T14:29:53;13.60;99.90
32749;DHT22;19119;52.474;13.710;2022-09-20T14:39:53;14.10;99.90
32749;DHT22;19119;52.474;13.710;2022-09-20T14:42:35;14.20;99.90
32749;DHT22;19119;52.474;13.710;2022-09-20T14:45:05;14.30;99.90
32749;DHT22;19119;52.474;13.710;2022-09-20T14:47:51;14.40;99.90
32749;DHT22;19119;52.474;13.710;2022-09-20T14:50:29;14.50;99.90
32749;DHT22;19119;52.474;13.710;2022-09-20T14:53:01;14.60;99.90
32749;DHT22;19119;52.474;13.710;2022-09-20T14:55:26;14.90;99.90
32749;DHT22;19119;52.474;13.710;2022-09-20T14:57:56;15.20;99.90
32749;DHT22;19119;52.474;13.710;2022-09-20T15:00:23;15.30;99.90
32749;DHT22;19119;52.474;13.710;2022-09-20T15:02:49;15.10;99.90
32749;DHT22;19119;52.474;13.710;2022-09-20T15:05:21;15.10;99.90
32749;DHT22;19119;52.474;13.710;2022-09-20T15:07:48;15.10;99.90
32749;DHT22;19119;52.474;13.710;2022-09-20T15:10:14;15.00;99.90
32749;DHT22;19119;52.474;13.710;2022-09-20T15:12:40;15.10;99.90
32749;DHT22;19119;52.474;13.710;2022-09-20T15:15:13;15.00;99.90
32749;DHT22;19119;52.474;13.710;2022-09-20T15:17:44;15.10;99.90
32749;DHT22;19119;52.474;13.710;2022-09-20T15:20:16;15.20;99.90
32749;DHT22;19119;52.474;13.710;2022-09-20T15:22:42;14.90;99.90
32749;DHT22;19119;52.474;13.710;2022-09-20T15:25:12;15.00;99.90
32749;DHT22;19119;52.474;13.710;2022-09-20T15:27:39;15.00;99.90
32749;DHT22;19119;52.474;13.710;2022-09-20T15:30:05;15.00;99.90
32749;DHT22;19119;52.474;13.710;2022-09-20T15:32:30;14.90;99.90
32749;DHT22;19119;52.474;13.710;2022-09-20T15:34:56;14.90;99.90
32749;DHT22;19119;52.474;13.710;2022-09-20T15:37:21;14.90;99.90
32749;DHT22;19119;52.474;13.710;2022-09-20T15:39:47;14.90;99.90
32749;DHT22;19119;52.474;13.710;2022-09-20T15:42:13;14.90;99.90
32749;DHT22;19119;52.474;13.710;2022-09-20T15:44:39;14.90;99.90
32749;DHT22;19119;52.474;13.710;2022-09-20T15:47:04;14.90;99.90
32749;DHT22;19119;52.474;13.710;2022-09-20T15:49:30;14.60;99.90
32749;DHT22;19119;52.474;13.710;2022-09-20T15:51:57;14.70;99.90
32749;DHT22;19119;52.474;13.710;2022-09-20T15:54:22;14.80;99.90
32749;DHT22;19119;52.474;13.710;2022-09-20T15:56:48;14.50;99.90
32749;DHT22;19119;52.474;13.710;2022-09-20T15:59:14;14.60;99.90
32749;DHT22;19119;52.474;13.710;2022-09-20T16:01:42;14.60;99.90
32749;DHT22;19119;52.474;13.710;2022-09-20T16:06:37;14.60;99.90
32749;DHT22;19119;52.474;13.710;2022-09-20T16:09:04;14.50;99.90
32749;DHT22;19119;52.474;13.710;2022-09-20T16:11:30;14.50;99.90
32749;DHT22;19119;52.474;13.710;2022-09-20T16:13:57;14.40;99.90
32749;DHT22;19119;52.474;13.710;2022-09-20T16:16:25;14.10;99.90
32749;DHT22;19119;52.474;13.710;2022-09-20T16:18:51;13.80;99.90
32749;DHT22;19119;52.474;13.710;2022-09-20T16:21:40;13.70;99.90
32749;DHT22;19119;52.474;13.710;2022-09-20T16:24:07;13.70;99.90
32749;DHT22;19119;52.474;13.710;2022-09-20T16:26:34;13.70;99.90
32749;DHT22;19119;52.474;13.710;2022-09-20T16:29:01;13.80;99.90
32749;DHT22;19119;52.474;13.710;2022-09-20T16:31:45;13.60;99.90
32749;DHT22;19119;52.474;13.710;2022-09-20T16:34:27;13.50;99.90
32749;DHT22;19119;52.474;13.710;2022-09-20T16:37:05;13.50;99.90
32749;DHT22;19119;52.474;13.710;2022-09-20T16:39:31;13.40;99.90
32749;DHT22;19119;52.474;13.710;2022-09-20T16:42:02;13.30;99.90
32749;DHT22;19119;52.474;13.710;2022-09-20T16:44:30;13.20;99.90
32749;DHT22;19119;52.474;13.710;2022-09-20T16:46:55;13.10;99.90
32749;DHT22;19119;52.474;13.710;2022-09-20T16:49:21;13.00;99.90
32749;DHT22;19119;52.474;13.710;2022-09-20T16:51:47;13.00;99.90
32749;DHT22;19119;52.474;13.710;2022-09-20T16:54:15;13.00;99.90
32749;DHT22;19119;52.474;13.710;2022-09-20T16:56:43;12.90;99.90
32749;DHT22;19119;52.474;13.710;2022-09-20T16:59:10;12.80;99.90
32749;DHT22;19119;52.474;13.710;2022-09-20T17:01:37;12.80;99.90
32749;DHT22;19119;52.474;13.710;2022-09-20T17:04:03;12.60;99.90
32749;DHT22;19119;52.474;13.710;2022-09-20T17:06:30;12.60;99.90
32749;DHT22;19119;52.474;13.710;2022-09-20T17:08:56;12.60;99.90
32749;DHT22;19119;52.474;13.710;2022-09-20T17:11:24;12.50;99.90
32749;DHT22;19119;52.474;13.710;2022-09-20T17:13:51;12.50;99.90
32749;DHT22;19119;52.474;13.710;2022-09-20T17:16:29;12.30;99.90
32749;DHT22;19119;52.474;13.710;2022-09-20T17:19:00;12.30;99.90
32749;DHT22;19119;52.474;13.710;2022-09-20T17:21:27;12.20;99.90
32749;DHT22;19119;52.474;13.710;2022-09-20T17:23:56;12.10;99.90
32749;DHT22;19119;52.474;13.710;2022-09-20T17:26:24;12.00;99.90
32749;DHT22;19119;52.474;13.710;2022-09-20T17:28:51;12.00;99.90
32749;DHT22;19119;52.474;13.710;2022-09-20T17:31:20;11.90;99.90
32749;DHT22;19119;52.474;13.710;2022-09-20T17:33:47;11.80;99.90
32749;DHT22;19119;52.474;13.710;2022-09-20T17:36:14;11.80;99.90
32749;DHT22;19119;52.474;13.710;2022-09-20T17:38:41;11.60;99.90
32749;DHT22;19119;52.474;13.710;2022-09-20T17:41:13;11.60;99.90
32749;DHT22;19119;52.474;13.710;2022-09-20T17:43:40;11.50;99.90
32749;DHT22;19119;52.474;13.710;2022-09-20T17:48:37;11.40;99.90
32749;DHT22;19119;52.474;13.710;2022-09-20T17:51:04;11.40;99.90
32749;DHT22;19119;52.474;13.710;2022-09-20T17:53:31;11.30;99.90
32749;DHT22;19119;52.474;13.710;2022-09-20T17:55:58;11.30;99.90
32749;DHT22;19119;52.474;13.710;2022-09-20T17:58:24;11.20;99.90
32749;DHT22;19119;52.474;13.710;2022-09-20T18:00:50;11.10;99.90
32749;DHT22;19119;52.474;13.710;2022-09-20T18:03:21;11.00;99.90
32749;DHT22;19119;52.474;13.710;2022-09-20T18:05:46;11.00;99.90
32749;DHT22;19119;52.474;13.710;2022-09-20T18:08:14;11.00;99.90
32749;DHT22;19119;52.474;13.710;2022-09-20T18:10:40;10.90;99.90
32749;DHT22;19119;52.474;13.710;2022-09-20T18:13:06;10.90;99.90
32749;DHT22;19119;52.474;13.710;2022-09-20T18:15:32;10.80;99.90
32749;DHT22;19119;52.474;13.710;2022-09-20T18:17:58;10.70;99.90
32749;DHT22;19119;52.474;13.710;2022-09-20T18:20:24;10.60;99.90
32749;DHT22;19119;52.474;13.710;2022-09-20T18:22:49;10.70;99.90
32749;DHT22;19119;52.474;13.710;2022-09-20T18:25:15;10.50;99.90
32749;DHT22;19119;52.474;13.710;2022-09-20T18:27:40;10.50;99.90
32749;DHT22;19119;52.474;13.710;2022-09-20T18:30:07;10.50;99.90
32749;DHT22;19119;52.474;13.710;2022-09-20T18:32:32;10.50;99.90
32749;DHT22;19119;52.474;13.710;2022-09-20T18:34:58;10.50;99.90
32749;DHT22;19119;52.474;13.710;2022-09-20T18:37:23;10.50;99.90
32749;DHT22;19119;52.474;13.710;2022-09-20T18:39:49;10.40;99.90
32749;DHT22;19119;52.474;13.710;2022-09-20T18:42:15;10.40;99.90
32749;DHT22;19119;52.474;13.710;2022-09-20T18:44:40;10.40;99.90
32749;DHT22;19119;52.474;13.710;2022-09-20T18:47:08;10.30;99.90
32749;DHT22;19119;52.474;13.710;2022-09-20T18:49:34;10.20;99.90
32749;DHT22;19119;52.474;13.710;2022-09-20T18:51:59;10.20;99.90
32749;DHT22;19119;52.474;13.710;2022-09-20T18:54:25;10.10;99.90
32749;DHT22;19119;52.474;13.710;2022-09-20T18:56:54;10.10;99.90
32749;DHT22;19119;52.474;13.710;2022-09-20T18:59:24;10.00;99.90
32749;DHT22;19119;52.474;13.710;2022-09-20T19:20:54;9.80;99.90
32749;DHT22;19119;52.474;13.710;2022-09-20T19:26:13;9.70;99.90
32749;DHT22;19119;52.474;13.710;2022-09-20T19:28:39;9.70;99.90
32749;DHT22;19119;52.474;13.710;2022-09-20T19:31:08;9.60;99.90
32749;DHT22;19119;52.474;13.710;2022-09-20T19:33:35;9.60;99.90
32749;DHT22;19119;52.474;13.710;2022-09-20T19:36:01;9.50;99.90
32749;DHT22;19119;52.474;13.710;2022-09-20T19:38:53;9.40;99.90
32749;DHT22;19119;52.474;13.710;2022-09-20T19:44:18;9.40;99.90
32749;DHT22;19119;52.474;13.710;2022-09-20T19:47:16;9.30;99.90
32749;DHT22;19119;52.474;13.710;2022-09-20T19:52:33;9.10;99.90
32749;DHT22;19119;52.474;13.710;2022-09-20T19:54:59;9.10;99.90
32749;DHT22;19119;52.474;13.710;2022-09-20T19:57:43;9.10;99.90
32749;DHT22;19119;52.474;13.710;2022-09-20T20:00:12;9.10;99.90
32749;DHT22;19119;52.474;13.710;2022-09-20T20:02:42;9.00;99.90
32749;DHT22;19119;52.474;13.710;2022-09-20T20:05:19;9.10;99.90
32749;DHT22;19119;52.474;13.710;2022-09-20T20:08:11;9.00;99.90
32749;DHT22;19119;52.474;13.710;2022-09-20T20:11:00;8.90;99.90
32749;DHT22;19119;52.474;13.710;2022-09-20T20:13:43;8.80;99.90
32749;DHT22;19119;52.474;13.710;2022-09-20T20:16:46;8.70;99.90
32749;DHT22;19119;52.474;13.710;2022-09-20T20:24:56;8.60;99.90
32749;DHT22;19119;52.474;13.710;2022-09-20T20:27:22;8.50;99.90
32749;DHT22;19119;52.474;13.710;2022-09-20T20:29:48;8.50;99.90
32749;DHT22;19119;52.474;13.710;2022-09-20T20:32:14;8.50;99.90
32749;DHT22;19119;52.474;13.710;2022-09-20T20:34:40;8.40;99.90
32749;DHT22;19119;52.474;13.710;2022-09-20T20:37:06;8.40;99.90
32749;DHT22;19119;52.474;13.710;2022-09-20T20:39:32;8.40;99.90
32749;DHT22;19119;52.474;13.710;2022-09-20T20:41:59;8.40;99.90
32749;DHT22;19119;52.474;13.710;2022-09-20T20:44:30;8.40;99.90
32749;DHT22;19119;52.474;13.710;2022-09-20T20:46:56;8.30;99.90
32749;DHT22;19119;52.474;13.710;2022-09-20T20:49:22;8.30;99.90